sensor_id;sensor_type;location;lat;lon;timestamp;pressure;altitude;pressure_sealevel;temperature;humidity
74544;BME280;63016;55.030;38.710;2022-12-10T00:00:21;99876.75;;;0.65;67.94
74544;BME280;63016;55.030;38.710;2022-12-10T00:02:46;99885.91;;;0.69;68.01
74544;BME280;63016;55.030;38.710;2022-12-10T00:05:12;99895.13;;;0.72;67.76
74544;BME280;63016;55.030;38.710;2022-12-10T00:07:37;99895.13;;;0.72;67.73
74544;BME280;63016;55.030;38.710;2022-12-10T00:10:03;99880.25;;;0.64;68.51
74544;BME280;63016;55.030;38.710;2022-12-10T00:12:29;99900.19;;;0.73;68.26
74544;BME280;63016;55.030;38.710;2022-12-10T00:14:54;99901.81;;;0.74;68.61
74544;BME280;63016;55.030;38.710;2022-12-10T00:17:20;99906.22;;;0.72;67.79
74544;BME280;63016;55.030;38.710;2022-12-10T00:19:45;99904.50;;;0.73;68.22
74544;BME280;63016;55.030;38.710;2022-12-10T00:22:11;99911.16;;;0.75;68.13
74544;BME280;63016;55.030;38.710;2022-12-10T00:24:36;99919.69;;;0.76;68.16
74544;BME280;63016;55.030;38.710;2022-12-10T00:27:02;99916.31;;;0.75;68.09
74544;BME280;63016;55.030;38.710;2022-12-10T00:29:27;99924.81;;;0.76;68.24
74544;BME280;63016;55.030;38.710;2022-12-10T00:31:53;99914.56;;;0.76;68.64
74544;BME280;63016;55.030;38.710;2022-12-10T00:34:18;99899.25;;;0.74;68.72
74544;BME280;63016;55.030;38.710;2022-12-10T00:36:46;99909.34;;;0.77;68.12
74544;BME280;63016;55.030;38.710;2022-12-10T00:39:15;99907.59;;;0.78;68.00
74544;BME280;63016;55.030;38.710;2022-12-10T00:41:41;99909.09;;;0.81;67.94
74544;BME280;63016;55.030;38.710;2022-12-10T00:44:06;99905.72;;;0.80;68.42
74544;BME280;63016;55.030;38.710;2022-12-10T00:46:32;99895.34;;;0.82;68.06
74544;BME280;63016;55.030;38.710;2022-12-10T00:48:58;99895.34;;;0.82;68.34
74544;BME280;63016;55.030;38.710;2022-12-10T00:51:26;99899.66;;;0.81;67.74
74544;BME280;63016;55.030;38.710;2022-12-10T00:53:54;99897.72;;;0.85;67.85
74544;BME280;63016;55.030;38.710;2022-12-10T00:56:22;99892.56;;;0.85;68.59
74544;BME280;63016;55.030;38.710;2022-12-10T00:58:49;99896.78;;;0.86;68.63
74544;BME280;63016;55.030;38.710;2022-12-10T01:03:53;99892.47;;;0.86;68.25
74544;BME280;63016;55.030;38.710;2022-12-10T01:06:25;99888.13;;;0.87;68.24
74544;BME280;63016;55.030;38.710;2022-12-10T01:08:52;99883.84;;;0.87;68.38
74544;BME280;63016;55.030;38.710;2022-12-10T01:11:20;99884.56;;;0.89;68.62
74544;BME280;63016;55.030;38.710;2022-12-10T01:13:47;99878.59;;;0.89;67.96
74544;BME280;63016;55.030;38.710;2022-12-10T01:16:15;99864.00;;;0.89;68.58
74544;BME280;63016;55.030;38.710;2022-12-10T01:18:41;99878.50;;;0.90;68.13
74544;BME280;63016;55.030;38.710;2022-12-10T01:21:10;99878.50;;;0.90;68.11
74544;BME280;63016;55.030;38.710;2022-12-10T01:23:38;99877.78;;;0.88;68.19
74544;BME280;63016;55.030;38.710;2022-12-10T01:26:12;99883.50;;;0.92;68.72
74544;BME280;63016;55.030;38.710;2022-12-10T01:28:39;99887.13;;;0.89;68.15
74544;BME280;63016;55.030;38.710;2022-12-10T01:31:08;99879.31;;;0.91;68.60
74544;BME280;63016;55.030;38.710;2022-12-10T01:33:35;99881.78;;;0.92;68.05
74544;BME280;63016;55.030;38.710;2022-12-10T01:36:12;99883.44;;;0.93;68.45
74544;BME280;63016;55.030;38.710;2022-12-10T01:38:38;99876.66;;;0.92;68.48
74544;BME280;63016;55.030;38.710;2022-12-10T01:41:06;99876.44;;;0.95;68.15
74544;BME280;63016;55.030;38.710;2022-12-10T01:43:52;99876.34;;;0.97;67.97
74544;BME280;63016;55.030;38.710;2022-12-10T01:46:19;99874.69;;;0.96;68.30
74544;BME280;63016;55.030;38.710;2022-12-10T01:48:44;99873.78;;;0.97;68.16
74544;BME280;63016;55.030;38.710;2022-12-10T01:51:12;99865.13;;;0.98;68.25
74544;BME280;63016;55.030;38.710;2022-12-10T01:53:38;99874.47;;;0.99;68.56
74544;BME280;63016;55.030;38.710;2022-12-10T01:56:03;99878.69;;;1.00;68.08
74544;BME280;63016;55.030;38.710;2022-12-10T01:58:29;99869.22;;;1.00;68.01
74544;BME280;63016;55.030;38.710;2022-12-10T02:00:57;99864.00;;;1.02;68.48
74544;BME280;63016;55.030;38.710;2022-12-10T02:03:59;99868.91;;;1.05;68.51
74544;BME280;63016;55.030;38.710;2022-12-10T02:06:50;99845.78;;;1.05;68.39
74544;BME280;63016;55.030;38.710;2022-12-10T02:09:38;99852.47;;;1.08;68.62
74544;BME280;63016;55.030;38.710;2022-12-10T02:12:16;99848.34;;;1.05;68.66
74544;BME280;63016;55.030;38.710;2022-12-10T02:15:06;99855.88;;;1.08;68.29
74544;BME280;63016;55.030;38.710;2022-12-10T02:17:54;99855.06;;;1.08;68.33
74544;BME280;63016;55.030;38.710;2022-12-10T02:20:36;99857.50;;;1.09;68.57
74544;BME280;63016;55.030;38.710;2022-12-10T02:23:16;99862.63;;;1.09;68.29
74544;BME280;63016;55.030;38.710;2022-12-10T02:25:53;99872.91;;;1.09;68.73
74544;BME280;63016;55.030;38.710;2022-12-10T02:28:36;99864.28;;;1.10;67.98
74544;BME280;63016;55.030;38.710;2022-12-10T02:31:04;99866.84;;;1.10;68.72
74544;BME280;63016;55.030;38.710;2022-12-10T02:33:31;99856.56;;;1.10;68.71
74544;BME280;63016;55.030;38.710;2022-12-10T02:35:59;99864.28;;;1.10;68.46
74544;BME280;63016;55.030;38.710;2022-12-10T02:38:31;99849.78;;;1.09;68.34
74544;BME280;63016;55.030;38.710;2022-12-10T02:40:57;99849.28;;;1.17;67.63
74544;BME280;63016;55.030;38.710;2022-12-10T02:43:26;99856.25;;;1.15;68.52
74544;BME280;63016;55.030;38.710;2022-12-10T02:45:52;99846.19;;;1.12;68.04
74544;BME280;63016;55.030;38.710;2022-12-10T02:48:19;99847.34;;;1.08;68.60
74544;BME280;63016;55.030;38.710;2022-12-10T02:50:45;99845.34;;;1.11;68.29
74544;BME280;63016;55.030;38.710;2022-12-10T02:53:11;99836.00;;;1.10;68.72
74544;BME280;63016;55.030;38.710;2022-12-10T03:02:13;99845.97;;;1.15;68.53
74544;BME280;63016;55.030;38.710;2022-12-10T03:04:22;99828.81;;;1.15;67.97
74544;BME280;63016;55.030;38.710;2022-12-10T03:06:53;99834.06;;;1.14;68.74
74544;BME280;63016;55.030;38.710;2022-12-10T03:09:32;99830.34;;;1.18;68.96
74544;BME280;63016;55.030;38.710;2022-12-10T03:12:09;99823.47;;;1.18;68.26
74544;BME280;63016;55.030;38.710;2022-12-10T03:14:38;99812.56;;;1.15;68.41
74544;BME280;63016;55.030;38.710;2022-12-10T03:17:04;99824.16;;;1.20;68.65
74544;BME280;63016;55.030;38.710;2022-12-10T03:19:37;99822.41;;;1.21;68.29
74544;BME280;63016;55.030;38.710;2022-12-10T03:22:07;99826.72;;;1.20;68.67
74544;BME280;63016;55.030;38.710;2022-12-10T03:24:35;99833.41;;;1.23;68.82
74544;BME280;63016;55.030;38.710;2022-12-10T03:27:03;99833.75;;;1.18;68.34
74544;BME280;63016;55.030;38.710;2022-12-10T03:29:34;99837.75;;;1.22;68.05
74544;BME280;63016;55.030;38.710;2022-12-10T03:32:02;99844.31;;;1.26;68.37
74544;BME280;63016;55.030;38.710;2022-12-10T03:34:28;99840.06;;;1.25;68.35
74544;BME280;63016;55.030;38.710;2022-12-10T03:36:54;99835.66;;;1.27;68.69
74544;BME280;63016;55.030;38.710;2022-12-10T03:39:20;99839.06;;;1.28;68.59
74544;BME280;63016;55.030;38.710;2022-12-10T03:41:46;99838.94;;;1.29;68.38
74544;BME280;63016;55.030;38.710;2022-12-10T03:44:11;99833.59;;;1.33;68.71
74544;BME280;63016;55.030;38.710;2022-12-10T03:46:37;99826.81;;;1.32;68.47
74544;BME280;63016;55.030;38.710;2022-12-10T03:49:03;99844.56;;;1.35;68.28
74544;BME280;63016;55.030;38.710;2022-12-10T03:51:29;99843.75;;;1.34;68.59
74544;BME280;63016;55.030;38.710;2022-12-10T03:53:54;99853.94;;;1.36;68.16
74544;BME280;63016;55.030;38.710;2022-12-10T03:56:21;99850.44;;;1.37;68.57
74544;BME280;63016;55.030;38.710;2022-12-10T03:58:46;99855.59;;;1.37;68.50
74544;BME280;63016;55.030;38.710;2022-12-10T04:01:12;99849.63;;;1.36;68.46
74544;BME280;63016;55.030;38.710;2022-12-10T04:03:39;99850.44;;;1.37;68.72
74544;BME280;63016;55.030;38.710;2022-12-10T04:06:09;99860.63;;;1.38;68.21
74544;BME280;63016;55.030;38.710;2022-12-10T04:08:35;99859.69;;;1.39;68.68
74544;BME280;63016;55.030;38.710;2022-12-10T04:11:06;99848.81;;;1.36;68.73
74544;BME280;63016;55.030;38.710;2022-12-10T04:13:34;99839.13;;;1.39;68.19
74544;BME280;63016;55.030;38.710;2022-12-10T04:16:18;99849.31;;;1.41;68.20
74544;BME280;63016;55.030;38.710;2022-12-10T04:18:53;99847.16;;;1.35;68.03
74544;BME280;63016;55.030;38.710;2022-12-10T04:21:19;99846.81;;;1.39;68.59
74544;BME280;63016;55.030;38.710;2022-12-10T04:24:03;99836.47;;;1.41;68.84
74544;BME280;63016;55.030;38.710;2022-12-10T04:26:47;99826.25;;;1.39;68.48
74544;BME280;63016;55.030;38.710;2022-12-10T04:29:24;99827.06;;;1.40;68.43
74544;BME280;63016;55.030;38.710;2022-12-10T04:31:51;99825.34;;;1.40;68.30
74544;BME280;63016;55.030;38.710;2022-12-10T04:34:16;99827.94;;;1.40;68.36
74544;BME280;63016;55.030;38.710;2022-12-10T04:36:42;99819.38;;;1.40;68.67
74544;BME280;63016;55.030;38.710;2022-12-10T04:39:07;99827.81;;;1.42;68.36
74544;BME280;63016;55.030;38.710;2022-12-10T04:41:33;99828.50;;;1.44;68.26
74544;BME280;63016;55.030;38.710;2022-12-10T04:43:58;99825.00;;;1.45;68.29
74544;BME280;63016;55.030;38.710;2022-12-10T04:46:24;99829.31;;;1.44;68.45
74544;BME280;63016;55.030;38.710;2022-12-10T04:48:49;99829.31;;;1.44;68.45
74544;BME280;63016;55.030;38.710;2022-12-10T04:51:15;99839.41;;;1.47;68.36
74544;BME280;63016;55.030;38.710;2022-12-10T04:53:40;99843.72;;;1.47;68.56
74544;BME280;63016;55.030;38.710;2022-12-10T04:56:06;99843.22;;;1.42;68.24
74544;BME280;63016;55.030;38.710;2022-12-10T04:58:32;99836.94;;;1.46;68.66
74544;BME280;63016;55.030;38.710;2022-12-10T05:01:07;99834.25;;;1.47;68.38
74544;BME280;63016;55.030;38.710;2022-12-10T05:03:33;99832.50;;;1.48;68.75
74544;BME280;63016;55.030;38.710;2022-12-10T05:06:11;99840.00;;;1.51;68.58
74544;BME280;63016;55.030;38.710;2022-12-10T05:08:38;99841.75;;;1.50;68.14
74544;BME280;63016;55.030;38.710;2022-12-10T05:11:09;99842.59;;;1.51;69.08
74544;BME280;63016;55.030;38.710;2022-12-10T05:13:35;99842.78;;;1.48;68.29
74544;BME280;63016;55.030;38.710;2022-12-10T05:16:02;99840.00;;;1.51;68.55
74544;BME280;63016;55.030;38.710;2022-12-10T05:18:28;99847.59;;;1.52;68.97
74544;BME280;63016;55.030;38.710;2022-12-10T05:20:53;99842.47;;;1.52;68.47
74544;BME280;63016;55.030;38.710;2022-12-10T05:23:19;99845.84;;;1.53;68.68
74544;BME280;63016;55.030;38.710;2022-12-10T05:26:02;99832.88;;;1.54;68.34
74544;BME280;63016;55.030;38.710;2022-12-10T05:28:29;99822.72;;;1.53;68.78
74544;BME280;63016;55.030;38.710;2022-12-10T05:30:55;99826.09;;;1.53;68.75
74544;BME280;63016;55.030;38.710;2022-12-10T05:33:21;99829.59;;;1.52;68.53
74544;BME280;63016;55.030;38.710;2022-12-10T05:36:01;99833.72;;;1.55;68.56
74544;BME280;63016;55.030;38.710;2022-12-10T05:38:28;99838.88;;;1.55;68.95
74544;BME280;63016;55.030;38.710;2022-12-10T05:40:54;99840.59;;;1.54;68.37
74544;BME280;63016;55.030;38.710;2022-12-10T05:43:20;99836.38;;;1.53;68.83
74544;BME280;63016;55.030;38.710;2022-12-10T05:45:46;99843.16;;;1.54;68.58
74544;BME280;63016;55.030;38.710;2022-12-10T05:48:14;99836.38;;;1.53;69.17
74544;BME280;63016;55.030;38.710;2022-12-10T05:50:40;99844.81;;;1.56;69.14
74544;BME280;63016;55.030;38.710;2022-12-10T05:53:06;99843.91;;;1.57;68.78
74544;BME280;63016;55.030;38.710;2022-12-10T05:55:32;99832.66;;;1.58;68.72
74544;BME280;63016;55.030;38.710;2022-12-10T05:57:59;99832.56;;;1.59;69.03
74544;BME280;63016;55.030;38.710;2022-12-10T06:00:25;99833.28;;;1.61;68.89
74544;BME280;63016;55.030;38.710;2022-12-10T06:02:51;99828.25;;;1.60;69.08
74544;BME280;63016;55.030;38.710;2022-12-10T06:05:16;99833.88;;;1.65;68.62
74544;BME280;63016;55.030;38.710;2022-12-10T06:07:42;99841.50;;;1.66;68.79
74544;BME280;63016;55.030;38.710;2022-12-10T06:10:08;99835.28;;;1.69;68.81
74544;BME280;63016;55.030;38.710;2022-12-10T06:12:34;99834.38;;;1.70;68.74
74544;BME280;63016;55.030;38.710;2022-12-10T06:14:59;99835.19;;;1.70;68.88
74544;BME280;63016;55.030;38.710;2022-12-10T06:17:25;99839.41;;;1.71;68.70
74544;BME280;63016;55.030;38.710;2022-12-10T06:19:50;99834.97;;;1.73;69.18
74544;BME280;63016;55.030;38.710;2022-12-10T06:22:16;99837.53;;;1.73;68.64
74544;BME280;63016;55.030;38.710;2022-12-10T06:24:41;99821.06;;;1.76;68.81
74544;BME280;63016;55.030;38.710;2022-12-10T06:27:07;99816.75;;;1.76;68.63
74544;BME280;63016;55.030;38.710;2022-12-10T06:29:32;99816.75;;;1.76;68.38
74544;BME280;63016;55.030;38.710;2022-12-10T06:31:58;99823.16;;;1.71;69.21
74544;BME280;63016;55.030;38.710;2022-12-10T06:34:23;99836.38;;;1.77;68.86
74544;BME280;63016;55.030;38.710;2022-12-10T06:36:49;99823.53;;;1.77;68.71
74544;BME280;63016;55.030;38.710;2022-12-10T06:39:15;99821.56;;;1.81;68.82
74544;BME280;63016;55.030;38.710;2022-12-10T06:41:40;99831.72;;;1.83;69.01
74544;BME280;63016;55.030;38.710;2022-12-10T06:44:10;99831.50;;;1.86;68.99
74544;BME280;63016;55.030;38.710;2022-12-10T06:46:36;99843.44;;;1.87;69.04
74544;BME280;63016;55.030;38.710;2022-12-10T06:49:02;99833.97;;;1.87;68.68
74544;BME280;63016;55.030;38.710;2022-12-10T06:51:28;99830.44;;;1.88;69.32
74544;BME280;63016;55.030;38.710;2022-12-10T06:53:54;99845.56;;;1.93;68.81
74544;BME280;63016;55.030;38.710;2022-12-10T06:56:22;99845.34;;;1.96;69.14
74544;BME280;63016;55.030;38.710;2022-12-10T06:58:48;99834.13;;;1.97;68.92
74544;BME280;63016;55.030;38.710;2022-12-10T07:01:20;99840.91;;;1.98;69.02
74544;BME280;63016;55.030;38.710;2022-12-10T07:03:50;99829.78;;;1.97;68.76
74544;BME280;63016;55.030;38.710;2022-12-10T07:06:16;99833.91;;;2.00;68.89
74544;BME280;63016;55.030;38.710;2022-12-10T07:08:41;99828.63;;;2.01;69.00
74544;BME280;63016;55.030;38.710;2022-12-10T07:11:11;99820.09;;;2.01;69.08
74544;BME280;63016;55.030;38.710;2022-12-10T07:13:37;99817.66;;;1.99;69.08
74544;BME280;63016;55.030;38.710;2022-12-10T07:16:32;99815.88;;;2.00;68.80
74544;BME280;63016;55.030;38.710;2022-12-10T07:18:58;99813.31;;;2.00;68.85
74544;BME280;63016;55.030;38.710;2022-12-10T07:21:33;99797.16;;;1.98;69.10
74544;BME280;63016;55.030;38.710;2022-12-10T07:24:08;99794.38;;;2.01;69.46
74544;BME280;63016;55.030;38.710;2022-12-10T07:26:39;99796.00;;;2.02;69.06
74544;BME280;63016;55.030;38.710;2022-12-10T07:29:06;99794.16;;;2.04;69.21
74544;BME280;63016;55.030;38.710;2022-12-10T07:31:33;99794.84;;;2.06;69.48
74544;BME280;63016;55.030;38.710;2022-12-10T07:34:01;99799.88;;;2.08;69.26
74544;BME280;63016;55.030;38.710;2022-12-10T07:36:27;99802.34;;;2.09;69.61
74544;BME280;63016;55.030;38.710;2022-12-10T07:38:54;99802.22;;;2.11;68.86
74544;BME280;63016;55.030;38.710;2022-12-10T07:41:20;99798.72;;;2.12;69.56
74544;BME280;63016;55.030;38.710;2022-12-10T07:43:46;99801.88;;;2.15;69.51
74544;BME280;63016;55.030;38.710;2022-12-10T07:46:17;99796.53;;;2.18;69.61
74544;BME280;63016;55.030;38.710;2022-12-10T07:48:44;99800.47;;;2.22;69.37
74544;BME280;63016;55.030;38.710;2022-12-10T07:51:10;99795.25;;;2.24;69.44
74544;BME280;63016;55.030;38.710;2022-12-10T07:53:36;99786.44;;;2.26;69.25
74544;BME280;63016;55.030;38.710;2022-12-10T07:56:02;99782.03;;;2.28;69.41
74544;BME280;63016;55.030;38.710;2022-12-10T07:58:28;99792.06;;;2.31;69.47
74544;BME280;63016;55.030;38.710;2022-12-10T08:00:53;99796.31;;;2.33;69.48
74544;BME280;63016;55.030;38.710;2022-12-10T08:03:19;99790.09;;;2.35;69.93
74544;BME280;63016;55.030;38.710;2022-12-10T08:05:44;99788.94;;;2.39;69.37
74544;BME280;63016;55.030;38.710;2022-12-10T08:08:10;99799.81;;;2.43;69.75
74544;BME280;63016;55.030;38.710;2022-12-10T08:10:37;99801.47;;;2.44;69.37
74544;BME280;63016;55.030;38.710;2022-12-10T08:13:04;99795.25;;;2.46;69.39
74544;BME280;63016;55.030;38.710;2022-12-10T08:15:30;99805.19;;;2.51;69.66
74544;BME280;63016;55.030;38.710;2022-12-10T08:17:56;99805.91;;;2.53;69.72
74544;BME280;63016;55.030;38.710;2022-12-10T08:20:23;99814.34;;;2.55;69.51
74544;BME280;63016;55.030;38.710;2022-12-10T08:22:48;99806.50;;;2.56;69.20
74544;BME280;63016;55.030;38.710;2022-12-10T08:25:14;99823.34;;;2.61;69.60
74544;BME280;63016;55.030;38.710;2022-12-10T08:27:40;99814.72;;;2.62;69.46
74544;BME280;63016;55.030;38.710;2022-12-10T08:30:05;99814.47;;;2.65;69.09
74544;BME280;63016;55.030;38.710;2022-12-10T08:32:31;99785.78;;;2.58;69.24
74544;BME280;63016;55.030;38.710;2022-12-10T08:34:57;99803.94;;;2.68;69.28
74544;BME280;63016;55.030;38.710;2022-12-10T08:37:22;99808.00;;;2.70;69.63
74544;BME280;63016;55.030;38.710;2022-12-10T08:39:48;99809.69;;;2.71;69.23
74544;BME280;63016;55.030;38.710;2022-12-10T08:42:13;99814.56;;;2.74;69.14
74544;BME280;63016;55.030;38.710;2022-12-10T08:44:39;99815.38;;;2.75;69.66
74544;BME280;63016;55.030;38.710;2022-12-10T08:47:05;99808.59;;;2.74;69.38
74544;BME280;63016;55.030;38.710;2022-12-10T08:49:31;99807.56;;;2.76;69.76
74544;BME280;63016;55.030;38.710;2022-12-10T08:51:56;99812.94;;;2.84;70.21
74544;BME280;63016;55.030;38.710;2022-12-10T08:54:22;99807.19;;;2.92;70.53
74544;BME280;63016;55.030;38.710;2022-12-10T08:56:47;99808.59;;;2.96;69.66
74544;BME280;63016;55.030;38.710;2022-12-10T08:59:12;99808.25;;;3.01;69.52
74544;BME280;63016;55.030;38.710;2022-12-10T09:01:38;99810.81;;;3.01;69.71
74544;BME280;63016;55.030;38.710;2022-12-10T09:04:04;99805.53;;;3.02;69.72
74544;BME280;63016;55.030;38.710;2022-12-10T09:06:29;99804.72;;;3.02;69.19
74544;BME280;63016;55.030;38.710;2022-12-10T09:08:56;99804.94;;;2.99;69.45
74544;BME280;63016;55.030;38.710;2022-12-10T09:11:30;99806.72;;;2.98;69.65
74544;BME280;63016;55.030;38.710;2022-12-10T09:13:56;99804.03;;;3.00;69.19
74544;BME280;63016;55.030;38.710;2022-12-10T09:16:28;99799.09;;;2.97;69.79
74544;BME280;63016;55.030;38.710;2022-12-10T09:18:54;99786.91;;;2.99;69.80
74544;BME280;63016;55.030;38.710;2022-12-10T09:21:20;99785.16;;;2.99;69.63
74544;BME280;63016;55.030;38.710;2022-12-10T09:23:45;99770.53;;;3.00;69.67
74544;BME280;63016;55.030;38.710;2022-12-10T09:26:13;99767.00;;;3.01;69.88
74544;BME280;63016;55.030;38.710;2022-12-10T09:28:39;99763.50;;;3.02;69.61
74544;BME280;63016;55.030;38.710;2022-12-10T09:31:09;99759.28;;;3.01;69.26
74544;BME280;63016;55.030;38.710;2022-12-10T09:33:35;99760.22;;;3.00;69.18
74544;BME280;63016;55.030;38.710;2022-12-10T09:36:05;99748.38;;;2.97;69.54
74544;BME280;63016;55.030;38.710;2022-12-10T09:38:36;99748.25;;;2.99;69.67
74544;BME280;63016;55.030;38.710;2022-12-10T09:41:03;99750.00;;;2.98;69.89
74544;BME280;63016;55.030;38.710;2022-12-10T09:49:29;99758.91;;;3.05;69.74
74544;BME280;63016;55.030;38.710;2022-12-10T09:52:02;99761.50;;;3.05;69.23
74544;BME280;63016;55.030;38.710;2022-12-10T09:54:50;99769.31;;;3.04;69.92
74544;BME280;63016;55.030;38.710;2022-12-10T09:59:53;99761.38;;;3.07;69.76
74544;BME280;63016;55.030;38.710;2022-12-10T10:04:58;99750.94;;;3.08;69.76
74544;BME280;63016;55.030;38.710;2022-12-10T10:07:29;99756.06;;;3.08;69.80
74544;BME280;63016;55.030;38.710;2022-12-10T10:09:59;99762.75;;;3.11;69.67
74544;BME280;63016;55.030;38.710;2022-12-10T10:12:31;99761.69;;;3.14;69.72
74544;BME280;63016;55.030;38.710;2022-12-10T10:14:59;99762.41;;;3.16;69.73
74544;BME280;63016;55.030;38.710;2022-12-10T10:17:36;99753.59;;;3.18;69.98
74544;BME280;63016;55.030;38.710;2022-12-10T10:20:03;99746.81;;;3.17;69.55
74544;BME280;63016;55.030;38.710;2022-12-10T10:22:29;99747.53;;;3.19;69.53
74544;BME280;63016;55.030;38.710;2022-12-10T10:24:55;99741.41;;;3.20;69.54
74544;BME280;63016;55.030;38.710;2022-12-10T10:27:28;99735.44;;;3.20;69.44
74544;BME280;63016;55.030;38.710;2022-12-10T10:29:56;99738.25;;;3.17;69.69
74544;BME280;63016;55.030;38.710;2022-12-10T10:32:25;102990.78;;;3.19;69.81
74544;BME280;63016;55.030;38.710;2022-12-10T10:34:58;99719.84;;;3.21;70.20
74544;BME280;63016;55.030;38.710;2022-12-10T10:37:51;99720.44;;;3.25;69.68
74544;BME280;63016;55.030;38.710;2022-12-10T10:40:32;99720.44;;;3.25;69.52
74544;BME280;63016;55.030;38.710;2022-12-10T10:42:58;99734.22;;;3.24;69.72
74544;BME280;63016;55.030;38.710;2022-12-10T10:45:43;99719.47;;;3.26;69.72
74544;BME280;63016;55.030;38.710;2022-12-10T10:48:23;99722.75;;;3.28;69.69
74544;BME280;63016;55.030;38.710;2022-12-10T10:50:54;99713.25;;;3.28;69.64
74544;BME280;63016;55.030;38.710;2022-12-10T10:56:01;99709.47;;;3.32;70.27
74544;BME280;63016;55.030;38.710;2022-12-10T10:58:30;99705.94;;;3.33;70.20
74544;BME280;63016;55.030;38.710;2022-12-10T11:01:02;99709.56;;;3.42;70.36
74544;BME280;63016;55.030;38.710;2022-12-10T11:03:29;99707.56;;;3.46;69.61
74544;BME280;63016;55.030;38.710;2022-12-10T11:05:57;99705.94;;;3.45;69.58
74544;BME280;63016;55.030;38.710;2022-12-10T11:08:25;99716.25;;;3.45;69.54
74544;BME280;63016;55.030;38.710;2022-12-10T11:11:01;99725.59;;;3.46;69.93
74544;BME280;63016;55.030;38.710;2022-12-10T11:13:32;99722.22;;;3.45;69.91
74544;BME280;63016;55.030;38.710;2022-12-10T11:16:15;99712.84;;;3.44;69.48
74544;BME280;63016;55.030;38.710;2022-12-10T11:19:03;99712.72;;;3.46;69.71
74544;BME280;63016;55.030;38.710;2022-12-10T11:21:33;99709.31;;;3.45;69.74
74544;BME280;63016;55.030;38.710;2022-12-10T11:24:02;99706.88;;;3.44;69.77
74544;BME280;63016;55.030;38.710;2022-12-10T11:29:39;99708.75;;;3.42;69.33
74544;BME280;63016;55.030;38.710;2022-12-10T11:38:09;99701.38;;;3.37;69.89
74544;BME280;63016;55.030;38.710;2022-12-10T11:40:46;99699.59;;;3.38;69.37
74544;BME280;63016;55.030;38.710;2022-12-10T11:46:24;99693.25;;;3.42;69.90
74544;BME280;63016;55.030;38.710;2022-12-10T11:49:24;99694.78;;;3.44;70.04
74544;BME280;63016;55.030;38.710;2022-12-10T11:54:51;99688.19;;;3.51;70.25
74544;BME280;63016;55.030;38.710;2022-12-10T11:59:56;99690.97;;;3.59;69.56
74544;BME280;63016;55.030;38.710;2022-12-10T12:13:27;99678.66;;;3.52;69.66
74544;BME280;63016;55.030;38.710;2022-12-10T12:16:11;99674.34;;;3.52;69.80
74544;BME280;63016;55.030;38.710;2022-12-10T12:21:25;99664.28;;;3.49;69.91
74544;BME280;63016;55.030;38.710;2022-12-10T12:24:01;99663.47;;;3.49;69.50
74544;BME280;63016;55.030;38.710;2022-12-10T12:26:45;99662.75;;;3.47;69.52
74544;BME280;63016;55.030;38.710;2022-12-10T12:29:34;99658.31;;;3.49;69.85
74544;BME280;63016;55.030;38.710;2022-12-10T12:32:03;99663.56;;;3.47;69.60
74544;BME280;63016;55.030;38.710;2022-12-10T12:34:51;99648.22;;;3.46;69.41
74544;BME280;63016;55.030;38.710;2022-12-10T12:37:20;99654.56;;;3.42;69.44
74544;BME280;63016;55.030;38.710;2022-12-10T12:40:03;99649.69;;;3.39;69.61
74544;BME280;63016;55.030;38.710;2022-12-10T12:42:48;99643.81;;;3.37;69.35
74544;BME280;63016;55.030;38.710;2022-12-10T12:45:20;99637.28;;;3.32;69.50
74544;BME280;63016;55.030;38.710;2022-12-10T12:50:59;99631.16;;;3.33;69.52
74544;BME280;63016;55.030;38.710;2022-12-10T12:53:23;99633.88;;;3.32;69.61
74544;BME280;63016;55.030;38.710;2022-12-10T12:56:12;99644.19;;;3.32;69.40
74544;BME280;63016;55.030;38.710;2022-12-10T13:01:33;99636.59;;;3.30;69.89
74544;BME280;63016;55.030;38.710;2022-12-10T13:04:01;99635.06;;;3.28;69.74
74544;BME280;63016;55.030;38.710;2022-12-10T13:06:30;99631.94;;;3.24;69.73
74544;BME280;63016;55.030;38.710;2022-12-10T13:17:32;99621.63;;;3.24;69.43
74544;BME280;63016;55.030;38.710;2022-12-10T13:22:59;99614.16;;;3.21;69.47
74544;BME280;63016;55.030;38.710;2022-12-10T13:28:27;99605.97;;;3.16;70.06
74544;BME280;63016;55.030;38.710;2022-12-10T13:31:15;99607.59;;;3.17;69.40
74544;BME280;63016;55.030;38.710;2022-12-10T13:37:03;99610.19;;;3.17;69.77
74544;BME280;63016;55.030;38.710;2022-12-10T13:45:02;99596.72;;;3.14;69.61
74544;BME280;63016;55.030;38.710;2022-12-10T13:53:48;99585.47;;;3.15;69.62
74544;BME280;63016;55.030;38.710;2022-12-10T13:56:36;99584.91;;;3.11;69.62
74544;BME280;63016;55.030;38.710;2022-12-10T14:04:35;99580.69;;;3.10;69.69
74544;BME280;63016;55.030;38.710;2022-12-10T14:07:11;99573.06;;;3.08;69.26
74544;BME280;63016;55.030;38.710;2022-12-10T14:09:57;99578.34;;;3.07;69.84
74544;BME280;63016;55.030;38.710;2022-12-10T14:12:29;99577.78;;;3.03;69.57
74544;BME280;63016;55.030;38.710;2022-12-10T14:14:59;99582.84;;;3.05;69.78
74544;BME280;63016;55.030;38.710;2022-12-10T14:17:34;99585.16;;;3.08;70.18
74544;BME280;63016;55.030;38.710;2022-12-10T14:20:05;99594.41;;;3.11;70.08
74544;BME280;63016;55.030;38.710;2022-12-10T14:22:43;99586.41;;;3.14;69.75
74544;BME280;63016;55.030;38.710;2022-12-10T14:25:13;99583.81;;;3.14;69.71
74544;BME280;63016;55.030;38.710;2022-12-10T14:27:39;99588.88;;;3.15;69.77
74544;BME280;63016;55.030;38.710;2022-12-10T14:30:22;99580.44;;;3.13;69.74
74544;BME280;63016;55.030;38.710;2022-12-10T14:32:50;99579.47;;;3.14;69.91
74544;BME280;63016;55.030;38.710;2022-12-10T14:35:26;99572.59;;;3.15;70.11
74544;BME280;63016;55.030;38.710;2022-12-10T14:37:55;99570.94;;;3.14;70.01
74544;BME280;63016;55.030;38.710;2022-12-10T14:40:42;99569.88;;;3.16;69.82
74544;BME280;63016;55.030;38.710;2022-12-10T14:44:01;99570.69;;;3.17;69.63
74544;BME280;63016;55.030;38.710;2022-12-10T14:46:00;99568.25;;;3.15;70.01
74544;BME280;63016;55.030;38.710;2022-12-10T14:48:27;99563.19;;;3.14;69.50